createdAt,value
2018-09-21T00:00:10.131Z,13.00
2018-09-21T00:01:10.099Z,11.50
2018-09-21T00:02:10.064Z,11.20
2018-09-21T00:03:10.035Z,13.70
2018-09-21T00:04:10.006Z,21.80
2018-09-21T00:05:09.976Z,13.80
2018-09-21T00:06:09.935Z,15.60
2018-09-21T00:07:09.905Z,12.20
2018-09-21T00:08:09.875Z,12.10
2018-09-21T00:09:09.841Z,12.50
2018-09-21T00:10:09.817Z,11.10
2018-09-21T00:11:09.775Z,15.10
2018-09-21T00:12:09.885Z,13.50
2018-09-21T00:13:09.722Z,12.60
2018-09-21T00:14:09.685Z,11.30
2018-09-21T00:15:09.681Z,12.70
2018-09-21T00:16:09.619Z,12.40
2018-09-21T00:17:09.587Z,11.80
2018-09-21T00:18:09.560Z,12.90
2018-09-21T00:19:09.526Z,13.70
2018-09-21T00:20:09.500Z,13.40
2018-09-21T00:21:09.464Z,14.00
2018-09-21T00:22:09.433Z,11.10
2018-09-21T00:23:09.402Z,11.10
2018-09-21T00:24:09.387Z,16.50
2018-09-21T00:25:09.341Z,12.70
2018-09-21T00:26:09.308Z,16.50
2018-09-21T00:27:09.288Z,14.20
2018-09-21T00:28:09.242Z,10.10
2018-09-21T00:29:09.219Z,17.40
2018-09-21T00:30:09.179Z,19.90
2018-09-21T00:31:09.145Z,15.90
2018-09-21T00:32:09.137Z,18.00
2018-09-21T00:33:09.088Z,13.80
2018-09-21T00:34:09.065Z,11.60
2018-09-21T00:35:09.026Z,13.30
2018-09-21T00:36:08.996Z,14.60
2018-09-21T00:37:08.960Z,14.20
2018-09-21T00:38:08.930Z,13.60
2018-09-21T00:39:08.906Z,12.40
2018-09-21T00:40:08.870Z,18.20
2018-09-21T00:41:08.836Z,14.80
2018-09-21T00:42:08.805Z,14.20
2018-09-21T00:43:08.773Z,14.80
2018-09-21T00:44:08.764Z,14.50
2018-09-21T00:45:08.744Z,19.50
2018-09-21T00:46:08.677Z,11.80
2018-09-21T00:47:08.666Z,18.80
2018-09-21T00:48:08.627Z,11.90
2018-09-21T00:49:08.587Z,13.70
2018-09-21T00:50:08.584Z,16.50
2018-09-21T00:51:08.523Z,21.10
2018-09-21T00:52:08.500Z,13.70
2018-09-21T00:53:08.459Z,12.80
2018-09-21T00:54:08.440Z,12.10
2018-09-21T00:55:08.415Z,12.10
2018-09-21T00:56:08.385Z,11.70
2018-09-21T00:57:08.332Z,11.80
2018-09-21T00:58:08.304Z,15.30
2018-09-21T00:59:08.271Z,13.30
2018-09-21T01:00:08.242Z,16.00
2018-09-21T01:01:08.207Z,16.60
2018-09-21T01:02:08.180Z,15.50
2018-09-21T01:03:08.143Z,14.50
2018-09-21T01:04:08.148Z,18.20
2018-09-21T01:05:08.085Z,16.30
2018-09-21T01:06:08.081Z,13.60
2018-09-21T01:07:08.018Z,15.10
2018-09-21T01:08:07.995Z,13.20
2018-09-21T01:09:07.955Z,15.90
2018-09-21T01:10:07.923Z,11.90
2018-09-21T01:11:07.894Z,16.20
2018-09-21T01:12:07.886Z,14.00
2018-09-21T01:13:07.832Z,24.20
2018-09-21T01:14:07.801Z,13.80
2018-09-21T01:15:07.779Z,10.70
2018-09-21T01:16:07.760Z,15.30
2018-09-21T01:17:07.710Z,12.20
2018-09-21T01:18:07.686Z,15.50
2018-09-21T01:19:07.644Z,13.10
2018-09-21T01:20:07.612Z,12.60
2018-09-21T01:21:07.580Z,12.90
2018-09-21T01:22:07.558Z,15.80
2018-09-21T01:23:07.524Z,16.60
2018-09-21T01:24:07.486Z,11.80
2018-09-21T01:25:07.489Z,19.70
2018-09-21T01:26:07.419Z,12.30
2018-09-21T01:27:07.401Z,13.30
2018-09-21T01:28:07.357Z,11.00
2018-09-21T01:29:07.358Z,9.90
2018-09-21T01:30:07.295Z,14.00
2018-09-21T01:31:07.275Z,12.80
2018-09-21T01:32:07.237Z,18.70
2018-09-21T01:33:07.211Z,11.90
2018-09-21T01:34:07.170Z,18.30
2018-09-21T01:35:07.141Z,11.10
2018-09-21T01:36:07.112Z,15.30
2018-09-21T01:37:07.092Z,10.10
2018-09-21T01:38:07.072Z,13.00
2018-09-21T01:39:07.024Z,13.40
2018-09-21T01:40:06.983Z,12.40
2018-09-21T01:41:06.984Z,19.50
2018-09-21T01:42:06.919Z,14.60
2018-09-21T01:43:06.885Z,11.20
2018-09-21T01:44:06.877Z,12.90
2018-09-21T01:45:06.832Z,14.30
2018-09-21T01:46:06.796Z,12.70
2018-09-21T01:47:06.759Z,19.60
2018-09-21T01:48:07.227Z,15.80
2018-09-21T01:49:06.695Z,12.00
2018-09-21T01:50:06.670Z,11.80
2018-09-21T01:51:06.637Z,12.30
2018-09-21T01:52:06.606Z,16.60
2018-09-21T01:53:07.199Z,12.20
2018-09-21T01:54:06.540Z,13.20
2018-09-21T01:55:06.515Z,18.90
2018-09-21T01:56:06.482Z,14.60
2018-09-21T01:57:06.449Z,15.10
2018-09-21T01:58:06.420Z,15.10
2018-09-21T01:59:06.393Z,13.50
2018-09-21T02:00:06.496Z,16.60
2018-09-21T02:01:06.328Z,18.00
2018-09-21T02:02:06.501Z,13.80
2018-09-21T02:03:06.260Z,13.60
2018-09-21T02:04:06.545Z,13.70
2018-09-21T02:05:06.520Z,16.40
2018-09-21T02:06:06.183Z,13.50
2018-09-21T02:07:06.134Z,13.90
2018-09-21T02:08:06.106Z,12.90
2018-09-21T02:09:06.095Z,12.40
2018-09-21T02:10:06.038Z,14.40
2018-09-21T02:11:06.014Z,11.70
2018-09-21T02:12:05.980Z,16.40
2018-09-21T02:13:05.946Z,10.10
2018-09-21T02:14:05.931Z,14.20
2018-09-21T02:15:05.884Z,15.20
2018-09-21T02:16:05.865Z,15.90
2018-09-21T02:17:05.834Z,11.20
2018-09-21T02:18:05.802Z,12.40
2018-09-21T02:19:05.778Z,11.60
2018-09-21T02:20:05.757Z,16.60
2018-09-21T02:21:05.728Z,13.10
2018-09-21T02:22:05.662Z,15.40
2018-09-21T02:23:05.632Z,14.80
2018-09-21T02:24:05.601Z,17.70
2018-09-21T02:25:06.206Z,21.10
2018-09-21T02:26:05.541Z,10.10
2018-09-21T02:27:05.515Z,16.60
2018-09-21T02:28:05.492Z,16.40
2018-09-21T02:29:05.453Z,17.40
2018-09-21T02:30:05.415Z,13.70
2018-09-21T02:31:05.386Z,11.30
2018-09-21T02:32:05.357Z,15.80
2018-09-21T02:33:05.356Z,14.30
2018-09-21T02:34:05.318Z,18.30
2018-09-21T02:35:05.260Z,11.50
2018-09-21T02:36:05.229Z,21.00
2018-09-21T02:37:05.192Z,13.70
2018-09-21T02:38:05.162Z,14.50
2018-09-21T02:39:05.154Z,13.60
2018-09-21T02:40:05.106Z,15.40
2018-09-21T02:41:05.079Z,14.10
2018-09-21T02:42:05.043Z,11.50
2018-09-21T02:43:05.019Z,14.30
2018-09-21T02:44:04.976Z,10.30
2018-09-21T02:45:04.942Z,13.70
2018-09-21T02:46:04.918Z,17.40
2018-09-21T02:47:04.877Z,13.20
2018-09-21T02:48:04.851Z,12.50
2018-09-21T02:49:04.816Z,14.00
2018-09-21T02:50:04.816Z,11.50
2018-09-21T02:51:04.775Z,11.80
2018-09-21T02:52:04.753Z,11.30
2018-09-21T02:53:04.688Z,10.70
2018-09-21T02:54:04.668Z,9.60
2018-09-21T02:55:04.637Z,14.80
2018-09-21T02:56:04.611Z,9.30
2018-09-21T02:57:04.573Z,12.70
2018-09-21T02:58:04.549Z,12.20
2018-09-21T02:59:04.508Z,16.10
2018-09-21T03:00:04.478Z,11.40
2018-09-21T03:01:04.498Z,10.10
2018-09-21T03:02:04.409Z,12.80
2018-09-21T03:03:04.399Z,12.20
2018-09-21T03:04:04.347Z,11.10
2018-09-21T03:05:04.354Z,13.50
2018-09-21T03:06:04.291Z,12.20
2018-09-21T03:07:04.257Z,17.50
2018-09-21T03:08:04.236Z,15.00
2018-09-21T03:09:04.199Z,12.80
2018-09-21T03:10:04.178Z,16.80
2018-09-21T03:11:04.132Z,15.70
2018-09-21T03:12:04.102Z,11.60
2018-09-21T03:13:04.381Z,11.20
2018-09-21T03:14:04.043Z,11.00
2018-09-21T03:15:04.012Z,16.80
2018-09-21T03:16:03.993Z,14.20
2018-09-21T03:17:03.946Z,13.20
2018-09-21T03:18:03.921Z,14.60
2018-09-21T03:19:03.920Z,11.40
2018-09-21T03:20:03.866Z,11.20
2018-09-21T03:21:03.827Z,11.40
2018-09-21T03:22:03.796Z,16.90
2018-09-21T03:23:03.821Z,11.00
2018-09-21T03:24:03.739Z,11.40
2018-09-21T03:25:03.707Z,12.70
2018-09-21T03:26:03.726Z,12.90
2018-09-21T03:27:03.653Z,14.80
2018-09-21T03:28:03.640Z,12.60
2018-09-21T03:29:03.584Z,11.20
2018-09-21T03:30:03.556Z,13.70
2018-09-21T03:31:03.524Z,15.20
2018-09-21T03:32:03.508Z,16.00
2018-09-21T03:33:03.464Z,17.30
2018-09-21T03:34:03.438Z,20.60
2018-09-21T03:35:03.467Z,14.60
2018-09-21T03:36:03.393Z,15.70
2018-09-21T03:37:03.346Z,17.60
2018-09-21T03:38:03.316Z,13.10
2018-09-21T03:39:04.093Z,15.90
2018-09-21T03:40:03.249Z,18.90
2018-09-21T03:41:03.239Z,20.20
2018-09-21T03:42:04.094Z,11.30
2018-09-21T03:43:03.177Z,12.20
2018-09-21T03:44:03.129Z,15.50
2018-09-21T03:45:03.096Z,16.70
2018-09-21T03:46:03.087Z,17.50
2018-09-21T03:47:03.030Z,20.60
2018-09-21T03:48:03.001Z,16.40
2018-09-21T03:49:02.974Z,15.90
2018-09-21T03:50:02.937Z,16.10
2018-09-21T03:51:02.911Z,14.00
2018-09-21T03:52:02.886Z,18.00
2018-09-21T03:53:02.847Z,13.10
2018-09-21T03:54:02.817Z,11.60
2018-09-21T03:55:02.787Z,14.60
2018-09-21T03:56:02.756Z,15.50
2018-09-21T03:57:02.745Z,14.10
2018-09-21T03:58:02.716Z,20.10
2018-09-21T03:59:02.675Z,23.90
2018-09-21T04:00:02.661Z,19.70
2018-09-21T04:01:02.638Z,11.30
2018-09-21T04:02:02.584Z,19.50
2018-09-21T04:03:02.548Z,17.90
2018-09-21T04:04:02.518Z,13.90
2018-09-21T04:05:02.487Z,17.30
2018-09-21T04:06:02.450Z,16.90
2018-09-21T04:07:02.423Z,17.90
2018-09-21T04:08:02.391Z,15.60
2018-09-21T04:09:02.363Z,16.20
2018-09-21T04:10:02.340Z,12.20
2018-09-21T04:11:02.341Z,13.10
2018-09-21T04:12:02.273Z,14.80
2018-09-21T04:13:02.243Z,16.10
2018-09-21T04:14:02.209Z,19.10
2018-09-21T04:15:02.190Z,22.00
2018-09-21T04:16:02.149Z,19.40
2018-09-21T04:17:02.120Z,38.10
2018-09-21T04:18:02.108Z,16.90
2018-09-21T04:19:02.065Z,18.90
2018-09-21T04:20:02.027Z,25.70
2018-09-21T04:21:02.000Z,24.20
2018-09-21T04:22:02.082Z,55.90
2018-09-21T04:23:01.966Z,33.50
2018-09-21T04:24:01.954Z,30.40
2018-09-21T04:25:01.873Z,24.70
2018-09-21T04:26:01.857Z,30.80
2018-09-21T04:27:01.833Z,31.20
2018-09-21T04:28:01.790Z,24.90
2018-09-21T04:29:01.762Z,26.80
2018-09-21T04:30:01.723Z,16.30
2018-09-21T04:31:01.707Z,19.60
2018-09-21T04:32:01.670Z,20.70
2018-09-21T04:33:01.671Z,17.60
2018-09-21T04:34:01.632Z,19.90
2018-09-21T04:35:01.607Z,20.70
2018-09-21T04:36:01.558Z,19.20
2018-09-21T04:37:01.513Z,18.00
2018-09-21T04:38:01.497Z,16.50
2018-09-21T04:39:01.466Z,20.80
2018-09-21T04:40:01.417Z,25.40
2018-09-21T04:41:01.396Z,19.20
2018-09-21T04:42:01.364Z,17.00
2018-09-21T04:43:01.330Z,37.90
2018-09-21T04:44:01.342Z,38.50
2018-09-21T04:45:01.282Z,18.10
2018-09-21T04:46:01.250Z,26.90
2018-09-21T04:47:01.208Z,31.70
2018-09-21T04:48:01.175Z,50.10
2018-09-21T04:49:01.147Z,35.30
2018-09-21T04:50:01.688Z,30.00
2018-09-21T04:51:01.087Z,29.40
2018-09-21T04:52:01.058Z,32.70
2018-09-21T04:53:01.026Z,33.10
2018-09-21T04:54:00.996Z,29.60
2018-09-21T04:55:00.967Z,23.70
2018-09-21T04:56:00.932Z,29.80
2018-09-21T04:57:00.943Z,23.70
2018-09-21T04:58:00.876Z,28.80
2018-09-21T04:59:00.856Z,23.80
2018-09-21T05:00:00.808Z,26.30
2018-09-21T05:01:00.793Z,25.90
2018-09-21T05:02:00.757Z,29.70
2018-09-21T05:03:00.719Z,22.90
2018-09-21T05:04:00.697Z,22.80
2018-09-21T05:05:00.664Z,22.90
2018-09-21T05:06:00.625Z,19.00
2018-09-21T05:07:00.613Z,20.20
2018-09-21T05:08:00.570Z,30.40
2018-09-21T05:09:00.569Z,21.30
2018-09-21T05:10:00.505Z,28.00
2018-09-21T05:11:00.478Z,23.30
2018-09-21T05:12:00.446Z,21.90
2018-09-21T05:13:00.439Z,18.10
2018-09-21T05:14:00.386Z,20.80
2018-09-21T05:15:00.353Z,19.10
2018-09-21T05:16:00.324Z,28.50
2018-09-21T05:17:00.296Z,27.10
2018-09-21T05:18:00.260Z,20.90
2018-09-21T05:19:00.234Z,22.70
2018-09-21T05:20:00.203Z,21.20
2018-09-21T05:21:00.175Z,14.40
2018-09-21T05:22:00.137Z,19.80
2018-09-21T05:23:00.108Z,18.40
2018-09-21T05:24:00.085Z,13.70
2018-09-21T05:25:00.076Z,20.70
2018-09-21T05:26:00.018Z,23.20
2018-09-21T05:26:59.991Z,19.00
2018-09-21T05:27:59.955Z,33.10
2018-09-21T05:28:59.925Z,23.80
2018-09-21T05:29:59.930Z,31.20
2018-09-21T05:30:59.864Z,23.50
2018-09-21T05:31:59.835Z,16.30
2018-09-21T05:32:59.804Z,23.80
2018-09-21T05:33:59.780Z,24.80
2018-09-21T05:34:59.786Z,21.30
2018-09-21T05:35:59.723Z,25.50
2018-09-21T05:36:59.680Z,24.80
2018-09-21T05:37:59.653Z,24.60
2018-09-21T05:38:59.623Z,16.30
2018-09-21T05:39:59.589Z,21.60
2018-09-21T05:40:59.557Z,25.80
2018-09-21T05:41:59.532Z,15.60
2018-09-21T05:42:59.499Z,15.40
2018-09-21T05:43:59.467Z,27.10
2018-09-21T05:44:59.449Z,22.80
2018-09-21T05:45:59.405Z,65.60
2018-09-21T05:46:59.389Z,52.60
2018-09-21T05:47:59.349Z,54.20
2018-09-21T05:48:59.319Z,30.30
2018-09-21T05:49:59.281Z,27.90
2018-09-21T05:50:59.252Z,27.90
2018-09-21T05:51:59.224Z,34.70
2018-09-21T05:52:59.193Z,19.80
2018-09-21T05:53:59.161Z,34.80
2018-09-21T05:54:59.133Z,36.40
2018-09-21T05:55:59.123Z,33.60
2018-09-21T05:56:59.069Z,24.40
2018-09-21T05:57:59.057Z,28.20
2018-09-21T05:58:59.010Z,23.50
2018-09-21T05:59:58.982Z,20.20
2018-09-21T06:00:58.955Z,24.80
2018-09-21T06:01:59.215Z,23.90
2018-09-21T06:02:59.077Z,24.10
2018-09-21T06:03:58.858Z,31.50
2018-09-21T06:04:58.822Z,21.40
2018-09-21T06:05:58.791Z,23.30
2018-09-21T06:06:58.769Z,29.90
2018-09-21T06:07:58.749Z,25.50
2018-09-21T06:08:58.709Z,20.50
2018-09-21T06:09:58.679Z,36.80
2018-09-21T06:10:58.651Z,32.40
2018-09-21T06:11:58.611Z,23.20
2018-09-21T06:12:58.580Z,20.90
2018-09-21T06:13:58.591Z,34.10
2018-09-21T06:14:58.526Z,29.70
2018-09-21T06:15:58.494Z,28.40
2018-09-21T06:16:58.458Z,30.10
2018-09-21T06:17:58.440Z,26.70
2018-09-21T06:18:58.407Z,30.70
2018-09-21T06:20:11.756Z,26.30
2018-09-21T06:20:58.345Z,26.60
2018-09-21T06:21:58.317Z,23.50
2018-09-21T06:22:58.339Z,22.60
2018-09-21T06:23:58.251Z,17.20
2018-09-21T06:24:58.217Z,18.70
2018-09-21T06:25:58.191Z,15.70
2018-09-21T06:26:58.151Z,20.00
2018-09-21T06:27:58.124Z,19.20
2018-09-21T06:28:58.093Z,16.40
2018-09-21T06:29:58.066Z,16.70
2018-09-21T06:30:58.033Z,14.60
2018-09-21T06:31:58.023Z,15.50
2018-09-21T06:32:57.981Z,13.40
2018-09-21T06:33:57.943Z,12.00
2018-09-21T06:34:57.915Z,14.00
2018-09-21T06:35:57.881Z,16.30
2018-09-21T06:36:57.857Z,11.80
2018-09-21T06:37:57.819Z,17.90
2018-09-21T06:38:57.794Z,15.30
2018-09-21T06:39:57.761Z,19.60
2018-09-21T06:40:57.737Z,12.70
2018-09-21T06:41:57.702Z,15.30
2018-09-21T06:42:57.665Z,13.90
2018-09-21T06:43:57.645Z,16.30
2018-09-21T06:44:57.607Z,19.00
2018-09-21T06:45:57.577Z,18.00
2018-09-21T06:46:57.561Z,9.10
2018-09-21T06:47:57.521Z,14.40
2018-09-21T06:48:57.484Z,12.30
2018-09-21T06:49:57.490Z,12.80
2018-09-21T06:50:57.427Z,15.00
2018-09-21T06:51:57.392Z,8.40
2018-09-21T06:52:57.364Z,8.90
2018-09-21T06:53:57.335Z,12.90
2018-09-21T06:54:57.309Z,8.20
2018-09-21T06:55:57.274Z,14.20
2018-09-21T06:56:57.242Z,12.00
2018-09-21T06:57:57.211Z,11.00
2018-09-21T06:58:57.180Z,9.90
2018-09-21T06:59:57.149Z,10.60
2018-09-21T07:00:57.119Z,11.60
2018-09-21T07:01:57.658Z,8.30
2018-09-21T07:02:57.072Z,12.00
2018-09-21T07:03:57.050Z,11.20
2018-09-21T07:04:56.995Z,9.30
2018-09-21T07:05:56.983Z,11.80
2018-09-21T07:06:56.956Z,16.90
2018-09-21T07:07:56.915Z,11.00
2018-09-21T07:08:56.874Z,12.70
2018-09-21T07:09:56.880Z,9.00
2018-09-21T07:10:56.815Z,15.10
2018-09-21T07:11:56.796Z,14.40
2018-09-21T07:12:56.757Z,10.80
2018-09-21T07:13:56.721Z,14.20
2018-09-21T07:14:56.692Z,9.40
2018-09-21T07:15:56.693Z,15.90
2018-09-21T07:16:56.629Z,10.00
2018-09-21T07:17:56.606Z,6.50
2018-09-21T07:18:56.576Z,10.20
2018-09-21T07:19:56.551Z,12.30
2018-09-21T07:20:56.510Z,7.90
2018-09-21T07:21:56.481Z,10.70
2018-09-21T07:22:56.454Z,16.70
2018-09-21T07:23:56.420Z,8.20
2018-09-21T07:24:56.389Z,9.80
2018-09-21T07:25:56.400Z,9.80
2018-09-21T07:26:56.337Z,13.00
2018-09-21T07:27:56.299Z,9.60
2018-09-21T07:28:56.270Z,13.30
2018-09-21T07:29:56.248Z,8.20
2018-09-21T07:30:56.221Z,8.90
2018-09-21T07:31:56.183Z,8.10
2018-09-21T07:32:56.146Z,5.40
2018-09-21T07:33:56.168Z,26.00
2018-09-21T07:34:56.114Z,24.10
2018-09-21T07:35:56.053Z,18.30
2018-09-21T07:36:56.031Z,12.30
2018-09-21T07:37:55.999Z,7.60
2018-09-21T07:38:55.969Z,10.30
2018-09-21T07:39:56.665Z,12.20
2018-09-21T07:40:55.908Z,11.50
2018-09-21T07:41:55.877Z,11.20
2018-09-21T07:42:55.929Z,9.40
2018-09-21T07:43:55.813Z,8.20
2018-09-21T07:44:55.934Z,11.40
2018-09-21T07:45:55.753Z,9.30
2018-09-21T07:46:55.733Z,10.20
2018-09-21T07:47:55.698Z,8.30
2018-09-21T07:48:55.709Z,10.60
2018-09-21T07:49:55.653Z,10.60
2018-09-21T07:50:55.608Z,16.00
2018-09-21T07:51:55.572Z,9.20
2018-09-21T07:52:55.545Z,10.70
2018-09-21T07:53:55.526Z,9.70
2018-09-21T07:54:55.498Z,30.90
2018-09-21T07:55:55.450Z,9.90
2018-09-21T07:56:55.442Z,15.20
2018-09-21T07:57:55.392Z,12.40
2018-09-21T07:58:55.393Z,11.20
2018-09-21T07:59:55.338Z,11.30
2018-09-21T08:00:55.302Z,11.30
2018-09-21T08:01:55.275Z,9.70
2018-09-21T08:02:55.249Z,9.90
2018-09-21T08:03:55.214Z,13.70
2018-09-21T08:04:55.251Z,10.40
2018-09-21T08:05:55.400Z,9.60
2018-09-21T08:06:55.120Z,13.90
2018-09-21T08:07:55.088Z,8.30
2018-09-21T08:08:55.058Z,15.00
2018-09-21T08:09:55.035Z,11.40
2018-09-21T08:10:55.003Z,14.00
2018-09-21T08:11:54.972Z,13.50
2018-09-21T08:12:55.760Z,10.50
2018-09-21T08:13:54.915Z,6.80
2018-09-21T08:14:54.890Z,7.90
2018-09-21T08:15:54.845Z,8.00
2018-09-21T08:16:54.816Z,10.30
2018-09-21T08:17:54.791Z,7.70
2018-09-21T08:18:54.760Z,10.10
2018-09-21T08:19:54.728Z,10.20
2018-09-21T08:20:54.701Z,12.50
2018-09-21T08:21:54.666Z,10.30
2018-09-21T08:22:54.653Z,11.90
2018-09-21T08:23:54.619Z,9.60
2018-09-21T08:24:54.582Z,10.40
2018-09-21T08:25:54.548Z,7.20
2018-09-21T08:26:54.521Z,8.70
2018-09-21T08:27:54.487Z,10.50
2018-09-21T08:28:54.458Z,8.80
2018-09-21T08:29:54.441Z,10.00
2018-09-21T08:30:54.398Z,7.40
2018-09-21T08:31:54.369Z,14.30
2018-09-21T08:32:54.361Z,24.60
2018-09-21T08:33:54.311Z,34.10
2018-09-21T08:34:54.281Z,21.30
2018-09-21T08:35:54.264Z,39.20
2018-09-21T08:36:54.220Z,34.80
2018-09-21T08:37:54.191Z,45.00
2018-09-21T08:38:54.165Z,24.90
2018-09-21T08:39:54.126Z,23.30
2018-09-21T08:40:54.120Z,24.90
2018-09-21T08:41:54.071Z,31.10
2018-09-21T08:42:54.077Z,11.90
2018-09-21T08:43:54.009Z,20.40
2018-09-21T08:44:53.975Z,22.60
2018-09-21T08:45:53.963Z,16.50
2018-09-21T08:46:53.916Z,31.00
2018-09-21T08:47:53.879Z,16.80
2018-09-21T08:48:53.850Z,15.80
2018-09-21T08:49:54.050Z,16.50
2018-09-21T08:50:53.795Z,15.30
2018-09-21T08:51:53.753Z,19.70
2018-09-21T08:52:53.725Z,14.60
2018-09-21T08:53:53.695Z,15.20
2018-09-21T08:54:53.706Z,12.50
2018-09-21T08:55:54.022Z,12.80
2018-09-21T08:56:53.600Z,10.80
2018-09-21T08:57:53.565Z,13.20
2018-09-21T08:58:53.531Z,12.50
2018-09-21T08:59:53.507Z,13.90
2018-09-21T09:00:53.472Z,16.50
2018-09-21T09:01:53.457Z,14.60
2018-09-21T09:02:53.414Z,20.40
2018-09-21T09:03:53.378Z,17.80
2018-09-21T09:04:53.342Z,18.10
2018-09-21T09:05:53.306Z,14.70
2018-09-21T09:06:53.274Z,16.90
2018-09-21T09:07:53.285Z,14.30
2018-09-21T09:08:53.209Z,19.00
2018-09-21T09:09:53.188Z,20.50
2018-09-21T09:10:53.143Z,14.00
2018-09-21T09:11:53.115Z,20.10
2018-09-21T09:12:53.742Z,23.00
2018-09-21T09:13:53.050Z,20.40
2018-09-21T09:14:53.015Z,19.60
2018-09-21T09:15:52.989Z,15.60
2018-09-21T09:16:52.946Z,15.20
2018-09-21T09:17:52.908Z,22.50
2018-09-21T09:18:52.877Z,23.60
2018-09-21T09:19:52.849Z,23.20
2018-09-21T09:20:52.811Z,25.20
2018-09-21T09:21:52.775Z,20.40
2018-09-21T09:22:52.745Z,30.90
2018-09-21T09:23:52.715Z,25.10
2018-09-21T09:24:52.718Z,25.40
2018-09-21T09:25:52.643Z,24.30
2018-09-21T09:26:52.616Z,19.70
2018-09-21T09:27:52.579Z,23.70
2018-09-21T09:28:52.546Z,26.00
2018-09-21T09:29:52.835Z,28.80
2018-09-21T09:30:52.496Z,25.20
2018-09-21T09:31:52.445Z,21.30
2018-09-21T09:32:52.413Z,19.70
2018-09-21T09:33:52.414Z,23.40
2018-09-21T09:34:52.347Z,21.30
2018-09-21T09:35:52.318Z,23.90
2018-09-21T09:36:52.311Z,18.30
2018-09-21T09:37:52.255Z,18.30
2018-09-21T09:38:52.214Z,17.20
2018-09-21T09:39:52.178Z,24.70
2018-09-21T09:40:52.147Z,18.00
2018-09-21T09:41:52.121Z,18.80
2018-09-21T09:42:52.106Z,19.90
2018-09-21T09:43:52.045Z,19.50
2018-09-21T09:44:52.012Z,25.70
2018-09-21T09:45:52.016Z,24.80
2018-09-21T09:46:51.948Z,19.10
2018-09-21T09:47:51.918Z,25.70
2018-09-21T09:48:51.933Z,19.60
2018-09-21T09:49:51.849Z,20.10
2018-09-21T09:50:51.817Z,25.10
2018-09-21T09:51:51.794Z,20.70
2018-09-21T09:52:51.755Z,19.30
2018-09-21T09:53:51.717Z,18.30
2018-09-21T09:54:51.747Z,25.40
2018-09-21T09:55:51.653Z,18.00
2018-09-21T09:56:51.644Z,19.80
2018-09-21T09:57:51.588Z,13.30
2018-09-21T09:58:51.562Z,16.30
2018-09-21T09:59:51.531Z,15.20
2018-09-21T10:00:51.484Z,22.30
2018-09-21T10:01:51.473Z,19.80
2018-09-21T10:02:51.417Z,20.30
2018-09-21T10:03:51.433Z,21.50
2018-09-21T10:04:51.350Z,18.70
2018-09-21T10:05:51.326Z,15.50
2018-09-21T10:06:51.288Z,18.40
2018-09-21T10:07:51.258Z,17.30
2018-09-21T10:08:51.220Z,16.20
2018-09-21T10:09:51.185Z,24.10
2018-09-21T10:10:51.154Z,23.20
2018-09-21T10:11:51.116Z,18.50
2018-09-21T10:12:51.088Z,16.00
2018-09-21T10:13:51.056Z,21.50
2018-09-21T10:14:51.020Z,19.20
2018-09-21T10:15:50.993Z,22.20
2018-09-21T10:16:50.953Z,20.00
2018-09-21T10:17:50.920Z,17.20
2018-09-21T10:18:50.886Z,21.20
2018-09-21T10:19:50.859Z,20.20
2018-09-21T10:20:50.822Z,21.80
2018-09-21T10:21:50.786Z,16.70
2018-09-21T10:22:50.753Z,18.30
2018-09-21T10:23:50.757Z,19.10
2018-09-21T10:24:50.704Z,22.00
2018-09-21T10:25:50.653Z,18.60
2018-09-21T10:26:50.694Z,17.90
2018-09-21T10:27:50.790Z,18.30
2018-09-21T10:28:50.709Z,15.90
2018-09-21T10:29:50.520Z,18.80
2018-09-21T10:30:50.489Z,20.90
2018-09-21T10:31:50.530Z,17.50
2018-09-21T10:32:50.421Z,21.70
2018-09-21T10:33:50.490Z,20.80
2018-09-21T10:34:50.364Z,17.70
2018-09-21T10:35:50.346Z,20.60
2018-09-21T10:36:50.300Z,17.60
2018-09-21T10:37:50.265Z,13.50
2018-09-21T10:38:50.249Z,14.40
2018-09-21T10:39:50.245Z,19.90
2018-09-21T10:40:50.170Z,19.00
2018-09-21T10:41:50.129Z,19.40
2018-09-21T10:42:50.166Z,22.40
2018-09-21T10:43:50.071Z,21.40
2018-09-21T10:44:50.043Z,28.70
2018-09-21T10:45:50.003Z,17.70
2018-09-21T10:46:49.980Z,27.10
2018-09-21T10:47:49.936Z,24.30
2018-09-21T10:48:49.909Z,23.20
2018-09-21T10:49:49.928Z,29.50
2018-09-21T10:50:49.864Z,33.40
2018-09-21T10:51:49.805Z,34.80
2018-09-21T10:52:49.920Z,42.70
2018-09-21T10:53:49.747Z,39.60
2018-09-21T10:54:49.712Z,25.50
2018-09-21T10:55:49.684Z,22.70
2018-09-21T10:56:49.646Z,38.80
2018-09-21T10:57:49.615Z,34.20
2018-09-21T10:58:49.581Z,29.70
2018-09-21T10:59:49.550Z,36.70
2018-09-21T11:00:49.519Z,29.90
2018-09-21T11:01:49.501Z,26.70
2018-09-21T11:02:49.491Z,35.30
2018-09-21T11:03:49.424Z,35.40
2018-09-21T11:04:49.390Z,31.40
2018-09-21T11:05:49.358Z,25.60
2018-09-21T11:06:49.331Z,26.30
2018-09-21T11:07:49.303Z,30.50
2018-09-21T11:08:49.268Z,24.50
2018-09-21T11:09:49.229Z,30.40
2018-09-21T11:10:49.195Z,30.80
2018-09-21T11:11:49.166Z,31.70
2018-09-21T11:12:49.134Z,27.40
2018-09-21T11:13:49.105Z,28.00
2018-09-21T11:14:49.070Z,26.10
2018-09-21T11:15:49.210Z,24.90
2018-09-21T11:16:49.005Z,26.00
2018-09-21T11:17:48.982Z,25.20
2018-09-21T11:18:49.393Z,27.60
2018-09-21T11:19:48.914Z,23.80
2018-09-21T11:20:48.907Z,29.40
2018-09-21T11:21:48.870Z,22.70
2018-09-21T11:22:48.832Z,22.00
2018-09-21T11:23:48.799Z,24.30
2018-09-21T11:24:48.768Z,31.80
2018-09-21T11:25:48.748Z,23.80
2018-09-21T11:26:48.717Z,30.20
2018-09-21T11:27:48.686Z,23.40
2018-09-21T11:28:48.665Z,28.50
2018-09-21T11:29:48.625Z,29.90
2018-09-21T11:30:48.598Z,27.40
2018-09-21T11:31:48.519Z,22.10
2018-09-21T11:32:48.532Z,25.70
2018-09-21T11:33:48.523Z,17.90
2018-09-21T11:34:48.448Z,24.80
2018-09-21T11:35:48.411Z,29.70
2018-09-21T11:36:48.387Z,25.90
2018-09-21T11:37:48.376Z,34.10
2018-09-21T11:38:48.335Z,23.90
2018-09-21T11:39:48.307Z,28.30
2018-09-21T11:40:48.388Z,28.00
2018-09-21T11:41:48.312Z,26.10
2018-09-21T11:42:48.236Z,26.60
2018-09-21T11:43:48.259Z,25.10
2018-09-21T11:44:48.230Z,22.20
2018-09-21T11:45:48.217Z,26.00
2018-09-21T11:46:48.261Z,23.30
2018-09-21T11:47:48.207Z,24.40
2018-09-21T11:48:48.124Z,26.60
2018-09-21T11:49:48.090Z,32.20
2018-09-21T11:50:48.062Z,23.30
2018-09-21T11:51:48.031Z,23.10
2018-09-21T11:52:48.002Z,24.50
2018-09-21T11:53:47.992Z,26.70
2018-09-21T11:54:47.947Z,24.10
2018-09-21T11:55:47.920Z,25.30
2018-09-21T11:56:47.889Z,24.10
2018-09-21T11:57:47.884Z,28.60
2018-09-21T11:58:47.827Z,35.10
2018-09-21T11:59:47.800Z,31.40
2018-09-21T12:00:47.775Z,30.00
2018-09-21T12:01:47.773Z,34.40
2018-09-21T12:02:47.722Z,47.80
2018-09-21T12:03:47.674Z,33.10
2018-09-21T12:04:47.650Z,28.20
2018-09-21T12:05:47.615Z,22.90
2018-09-21T12:06:47.597Z,36.70
2018-09-21T12:07:47.550Z,31.40
2018-09-21T12:08:47.525Z,21.50
2018-09-21T12:09:47.488Z,29.70
2018-09-21T12:10:47.460Z,32.40
2018-09-21T12:11:47.468Z,14.50
2018-09-21T12:12:47.410Z,29.50
2018-09-21T12:13:47.361Z,14.50
2018-09-21T12:14:47.346Z,19.60
2018-09-21T12:15:47.450Z,12.60
2018-09-21T12:16:47.299Z,16.40
2018-09-21T12:17:47.699Z,14.50
2018-09-21T12:18:47.284Z,18.90
2018-09-21T12:19:47.193Z,20.10
2018-09-21T12:20:47.145Z,17.50
2018-09-21T12:21:47.118Z,20.30
2018-09-21T12:22:47.133Z,18.50
2018-09-21T12:23:47.053Z,16.50
2018-09-21T12:24:47.028Z,19.80
2018-09-21T12:25:47.001Z,20.90
2018-09-21T12:26:46.958Z,31.40
2018-09-21T12:27:46.933Z,14.70
2018-09-21T12:28:46.907Z,32.60
2018-09-21T12:29:46.870Z,21.30
2018-09-21T12:30:46.842Z,32.30
2018-09-21T12:31:46.816Z,21.80
2018-09-21T12:32:46.810Z,18.40
2018-09-21T12:33:46.742Z,43.90
2018-09-21T12:34:46.712Z,11.90
2018-09-21T12:35:46.689Z,13.40
2018-09-21T12:36:46.657Z,14.10
2018-09-21T12:37:46.617Z,8.90
2018-09-21T12:38:46.653Z,8.40
2018-09-21T12:39:46.564Z,9.50
2018-09-21T12:40:46.525Z,8.80
2018-09-21T12:41:46.495Z,12.40
2018-09-21T12:42:46.473Z,12.20
2018-09-21T12:43:46.456Z,11.90
2018-09-21T12:44:46.558Z,9.10
2018-09-21T12:45:46.371Z,9.20
2018-09-21T12:46:46.344Z,11.70
2018-09-21T12:47:46.344Z,12.90
2018-09-21T12:48:46.284Z,13.10
2018-09-21T12:49:46.251Z,14.10
2018-09-21T12:50:46.412Z,7.70
2018-09-21T12:51:46.345Z,14.50
2018-09-21T12:52:46.155Z,14.70
2018-09-21T12:53:46.127Z,17.00